sensor_id;sensor_type;location;lat;lon;timestamp;P1;durP1;ratioP1;P2;durP2;ratioP2
38549;SDS011;24322;52.004;5.948;2022-08-21T00:00:52;5.63;;;2.00;;
38549;SDS011;24322;52.004;5.948;2022-08-21T00:03:18;6.53;;;1.93;;
38549;SDS011;24322;52.004;5.948;2022-08-21T00:05:46;5.43;;;2.10;;
38549;SDS011;24322;52.004;5.948;2022-08-21T00:08:15;3.17;;;1.87;;
38549;SDS011;24322;52.004;5.948;2022-08-21T00:10:42;4.27;;;1.73;;
38549;SDS011;24322;52.004;5.948;2022-08-21T00:13:09;6.47;;;2.03;;
38549;SDS011;24322;52.004;5.948;2022-08-21T00:15:36;5.40;;;2.00;;
38549;SDS011;24322;52.004;5.948;2022-08-21T00:18:03;4.37;;;2.07;;
38549;SDS011;24322;52.004;5.948;2022-08-21T00:20:30;6.50;;;2.20;;
38549;SDS011;24322;52.004;5.948;2022-08-21T00:22:56;3.97;;;2.10;;
38549;SDS011;24322;52.004;5.948;2022-08-21T00:25:22;7.10;;;2.47;;
38549;SDS011;24322;52.004;5.948;2022-08-21T00:27:48;8.40;;;1.90;;
38549;SDS011;24322;52.004;5.948;2022-08-21T00:30:15;4.03;;;1.87;;
38549;SDS011;24322;52.004;5.948;2022-08-21T00:32:42;3.97;;;1.73;;
38549;SDS011;24322;52.004;5.948;2022-08-21T00:35:08;5.40;;;2.10;;
38549;SDS011;24322;52.004;5.948;2022-08-21T00:37:37;4.87;;;2.00;;
38549;SDS011;24322;52.004;5.948;2022-08-21T00:40:04;6.57;;;1.93;;
38549;SDS011;24322;52.004;5.948;2022-08-21T00:42:30;5.63;;;2.10;;
38549;SDS011;24322;52.004;5.948;2022-08-21T00:44:56;5.80;;;2.00;;
38549;SDS011;24322;52.004;5.948;2022-08-21T00:47:22;5.63;;;2.27;;
38549;SDS011;24322;52.004;5.948;2022-08-21T00:49:48;4.00;;;2.10;;
38549;SDS011;24322;52.004;5.948;2022-08-21T00:52:15;4.50;;;1.97;;
38549;SDS011;24322;52.004;5.948;2022-08-21T00:54:44;4.97;;;2.27;;
38549;SDS011;24322;52.004;5.948;2022-08-21T00:57:23;6.27;;;2.50;;
38549;SDS011;24322;52.004;5.948;2022-08-21T00:59:53;5.50;;;2.47;;
38549;SDS011;24322;52.004;5.948;2022-08-21T01:02:21;8.27;;;2.80;;
38549;SDS011;24322;52.004;5.948;2022-08-21T01:04:47;6.73;;;2.17;;
38549;SDS011;24322;52.004;5.948;2022-08-21T01:07:13;5.00;;;2.10;;
38549;SDS011;24322;52.004;5.948;2022-08-21T01:09:39;4.90;;;2.30;;
38549;SDS011;24322;52.004;5.948;2022-08-21T01:12:05;7.07;;;2.67;;
38549;SDS011;24322;52.004;5.948;2022-08-21T01:14:32;8.87;;;3.33;;
38549;SDS011;24322;52.004;5.948;2022-08-21T01:16:58;5.07;;;2.33;;
38549;SDS011;24322;52.004;5.948;2022-08-21T01:19:25;4.40;;;2.20;;
38549;SDS011;24322;52.004;5.948;2022-08-21T01:21:52;6.83;;;2.27;;
38549;SDS011;24322;52.004;5.948;2022-08-21T01:24:18;4.27;;;2.30;;
38549;SDS011;24322;52.004;5.948;2022-08-21T01:26:45;5.00;;;2.17;;
38549;SDS011;24322;52.004;5.948;2022-08-21T01:29:16;6.20;;;2.33;;
38549;SDS011;24322;52.004;5.948;2022-08-21T01:31:53;3.83;;;1.67;;
38549;SDS011;24322;52.004;5.948;2022-08-21T01:34:19;4.03;;;1.93;;
38549;SDS011;24322;52.004;5.948;2022-08-21T01:36:45;4.40;;;2.43;;
38549;SDS011;24322;52.004;5.948;2022-08-21T01:39:11;7.33;;;2.90;;
38549;SDS011;24322;52.004;5.948;2022-08-21T01:41:38;4.53;;;2.00;;
38549;SDS011;24322;52.004;5.948;2022-08-21T01:44:04;5.93;;;2.97;;
38549;SDS011;24322;52.004;5.948;2022-08-21T01:46:30;4.90;;;2.33;;
38549;SDS011;24322;52.004;5.948;2022-08-21T01:48:56;6.13;;;3.33;;
38549;SDS011;24322;52.004;5.948;2022-08-21T01:51:21;6.37;;;2.37;;
38549;SDS011;24322;52.004;5.948;2022-08-21T01:53:47;6.90;;;2.37;;
38549;SDS011;24322;52.004;5.948;2022-08-21T01:56:13;5.47;;;2.27;;
38549;SDS011;24322;52.004;5.948;2022-08-21T01:58:40;6.27;;;2.63;;
38549;SDS011;24322;52.004;5.948;2022-08-21T02:01:07;4.23;;;2.27;;
38549;SDS011;24322;52.004;5.948;2022-08-21T02:03:34;6.00;;;2.57;;
38549;SDS011;24322;52.004;5.948;2022-08-21T02:06:00;6.20;;;2.13;;
38549;SDS011;24322;52.004;5.948;2022-08-21T02:08:27;4.20;;;2.20;;
38549;SDS011;24322;52.004;5.948;2022-08-21T02:10:53;6.23;;;2.50;;
38549;SDS011;24322;52.004;5.948;2022-08-21T02:13:19;6.30;;;2.67;;
38549;SDS011;24322;52.004;5.948;2022-08-21T02:15:48;4.90;;;2.23;;
38549;SDS011;24322;52.004;5.948;2022-08-21T02:18:14;5.20;;;2.57;;
38549;SDS011;24322;52.004;5.948;2022-08-21T02:20:41;6.50;;;2.70;;
38549;SDS011;24322;52.004;5.948;2022-08-21T02:23:10;5.17;;;2.27;;
38549;SDS011;24322;52.004;5.948;2022-08-21T02:25:37;4.57;;;2.67;;
38549;SDS011;24322;52.004;5.948;2022-08-21T02:28:05;4.87;;;2.17;;
38549;SDS011;24322;52.004;5.948;2022-08-21T02:30:34;5.30;;;2.80;;
38549;SDS011;24322;52.004;5.948;2022-08-21T02:33:06;8.00;;;2.63;;
38549;SDS011;24322;52.004;5.948;2022-08-21T02:35:34;5.53;;;2.20;;
38549;SDS011;24322;52.004;5.948;2022-08-21T02:38:01;5.43;;;2.33;;
38549;SDS011;24322;52.004;5.948;2022-08-21T02:40:33;5.27;;;2.47;;
38549;SDS011;24322;52.004;5.948;2022-08-21T02:43:02;8.27;;;2.60;;
38549;SDS011;24322;52.004;5.948;2022-08-21T02:45:28;6.23;;;2.93;;
38549;SDS011;24322;52.004;5.948;2022-08-21T02:47:56;5.53;;;2.50;;
38549;SDS011;24322;52.004;5.948;2022-08-21T02:50:25;6.70;;;2.70;;
38549;SDS011;24322;52.004;5.948;2022-08-21T02:52:53;5.13;;;2.30;;
38549;SDS011;24322;52.004;5.948;2022-08-21T02:55:20;4.77;;;2.37;;
38549;SDS011;24322;52.004;5.948;2022-08-21T02:57:47;5.90;;;2.93;;
38549;SDS011;24322;52.004;5.948;2022-08-21T03:00:13;6.73;;;3.00;;
38549;SDS011;24322;52.004;5.948;2022-08-21T03:02:41;6.33;;;2.17;;
38549;SDS011;24322;52.004;5.948;2022-08-21T03:05:08;4.57;;;2.57;;
38549;SDS011;24322;52.004;5.948;2022-08-21T03:07:35;8.63;;;2.67;;
38549;SDS011;24322;52.004;5.948;2022-08-21T03:10:02;5.37;;;2.07;;
38549;SDS011;24322;52.004;5.948;2022-08-21T03:12:29;6.00;;;2.90;;
38549;SDS011;24322;52.004;5.948;2022-08-21T03:14:54;6.23;;;2.40;;
38549;SDS011;24322;52.004;5.948;2022-08-21T03:17:20;7.47;;;2.67;;
38549;SDS011;24322;52.004;5.948;2022-08-21T03:19:46;7.10;;;3.03;;
38549;SDS011;24322;52.004;5.948;2022-08-21T03:22:12;3.97;;;2.30;;
38549;SDS011;24322;52.004;5.948;2022-08-21T03:24:37;4.13;;;2.13;;
38549;SDS011;24322;52.004;5.948;2022-08-21T03:27:03;7.67;;;2.53;;
38549;SDS011;24322;52.004;5.948;2022-08-21T03:29:28;6.80;;;2.50;;
38549;SDS011;24322;52.004;5.948;2022-08-21T03:31:54;5.57;;;2.37;;
38549;SDS011;24322;52.004;5.948;2022-08-21T03:34:20;6.63;;;2.43;;
38549;SDS011;24322;52.004;5.948;2022-08-21T03:36:46;5.07;;;2.43;;
38549;SDS011;24322;52.004;5.948;2022-08-21T03:39:14;8.63;;;3.30;;
38549;SDS011;24322;52.004;5.948;2022-08-21T03:41:42;4.43;;;2.53;;
38549;SDS011;24322;52.004;5.948;2022-08-21T03:44:08;6.73;;;3.07;;
38549;SDS011;24322;52.004;5.948;2022-08-21T03:46:34;8.40;;;3.80;;
38549;SDS011;24322;52.004;5.948;2022-08-21T03:49:00;4.57;;;2.80;;
38549;SDS011;24322;52.004;5.948;2022-08-21T03:51:25;5.87;;;2.63;;
38549;SDS011;24322;52.004;5.948;2022-08-21T03:53:51;9.03;;;3.50;;
38549;SDS011;24322;52.004;5.948;2022-08-21T03:56:17;6.70;;;3.20;;
38549;SDS011;24322;52.004;5.948;2022-08-21T03:58:43;7.03;;;3.27;;
38549;SDS011;24322;52.004;5.948;2022-08-21T04:01:09;6.43;;;3.30;;
38549;SDS011;24322;52.004;5.948;2022-08-21T04:03:35;5.50;;;2.87;;
38549;SDS011;24322;52.004;5.948;2022-08-21T04:06:02;6.00;;;2.90;;
38549;SDS011;24322;52.004;5.948;2022-08-21T04:08:28;6.03;;;3.30;;
38549;SDS011;24322;52.004;5.948;2022-08-21T04:10:55;9.07;;;3.50;;
38549;SDS011;24322;52.004;5.948;2022-08-21T04:13:23;6.63;;;3.10;;
38549;SDS011;24322;52.004;5.948;2022-08-21T04:15:49;8.70;;;2.70;;
38549;SDS011;24322;52.004;5.948;2022-08-21T04:18:15;8.80;;;3.43;;
38549;SDS011;24322;52.004;5.948;2022-08-21T04:20:41;8.47;;;3.23;;
38549;SDS011;24322;52.004;5.948;2022-08-21T04:23:08;5.97;;;3.07;;
38549;SDS011;24322;52.004;5.948;2022-08-21T04:25:33;8.30;;;3.50;;
38549;SDS011;24322;52.004;5.948;2022-08-21T04:28:00;6.17;;;2.73;;
38549;SDS011;24322;52.004;5.948;2022-08-21T04:30:26;9.73;;;3.30;;
38549;SDS011;24322;52.004;5.948;2022-08-21T04:32:52;5.10;;;2.70;;
38549;SDS011;24322;52.004;5.948;2022-08-21T04:35:19;6.57;;;3.17;;
38549;SDS011;24322;52.004;5.948;2022-08-21T04:37:46;7.83;;;3.47;;
38549;SDS011;24322;52.004;5.948;2022-08-21T04:40:13;11.03;;;3.40;;
38549;SDS011;24322;52.004;5.948;2022-08-21T04:42:50;4.70;;;2.83;;
38549;SDS011;24322;52.004;5.948;2022-08-21T04:45:26;7.17;;;3.37;;
38549;SDS011;24322;52.004;5.948;2022-08-21T04:47:58;6.97;;;3.83;;
38549;SDS011;24322;52.004;5.948;2022-08-21T04:55:59;8.90;;;3.77;;
38549;SDS011;24322;52.004;5.948;2022-08-21T04:58:29;9.73;;;4.27;;
38549;SDS011;24322;52.004;5.948;2022-08-21T05:00:58;7.27;;;3.37;;
38549;SDS011;24322;52.004;5.948;2022-08-21T05:03:25;11.07;;;4.13;;
38549;SDS011;24322;52.004;5.948;2022-08-21T05:05:52;7.20;;;4.17;;
38549;SDS011;24322;52.004;5.948;2022-08-21T05:08:19;7.00;;;3.47;;
38549;SDS011;24322;52.004;5.948;2022-08-21T05:10:48;8.47;;;4.03;;
38549;SDS011;24322;52.004;5.948;2022-08-21T05:13:14;10.90;;;4.63;;
38549;SDS011;24322;52.004;5.948;2022-08-21T05:15:40;7.47;;;3.93;;
38549;SDS011;24322;52.004;5.948;2022-08-21T05:18:07;7.43;;;3.70;;
38549;SDS011;24322;52.004;5.948;2022-08-21T05:20:33;8.77;;;4.17;;
38549;SDS011;24322;52.004;5.948;2022-08-21T05:22:59;6.33;;;3.40;;
38549;SDS011;24322;52.004;5.948;2022-08-21T05:25:26;7.97;;;3.87;;
38549;SDS011;24322;52.004;5.948;2022-08-21T05:27:52;7.03;;;3.53;;
38549;SDS011;24322;52.004;5.948;2022-08-21T05:30:19;10.60;;;3.70;;
38549;SDS011;24322;52.004;5.948;2022-08-21T05:32:45;7.43;;;3.40;;
38549;SDS011;24322;52.004;5.948;2022-08-21T05:35:12;7.00;;;3.57;;
38549;SDS011;24322;52.004;5.948;2022-08-21T05:37:38;8.73;;;4.00;;
38549;SDS011;24322;52.004;5.948;2022-08-21T05:40:04;6.30;;;3.93;;
38549;SDS011;24322;52.004;5.948;2022-08-21T05:42:31;8.10;;;3.67;;
38549;SDS011;24322;52.004;5.948;2022-08-21T05:44:57;8.07;;;4.10;;
38549;SDS011;24322;52.004;5.948;2022-08-21T05:47:23;13.13;;;5.33;;
38549;SDS011;24322;52.004;5.948;2022-08-21T05:49:48;9.20;;;3.93;;
38549;SDS011;24322;52.004;5.948;2022-08-21T05:52:18;7.93;;;4.00;;
38549;SDS011;24322;52.004;5.948;2022-08-21T05:54:45;7.87;;;4.30;;
38549;SDS011;24322;52.004;5.948;2022-08-21T05:57:10;9.20;;;4.43;;
38549;SDS011;24322;52.004;5.948;2022-08-21T05:59:36;8.40;;;4.67;;
38549;SDS011;24322;52.004;5.948;2022-08-21T06:02:02;8.00;;;4.00;;
38549;SDS011;24322;52.004;5.948;2022-08-21T06:04:28;7.13;;;4.20;;
38549;SDS011;24322;52.004;5.948;2022-08-21T06:06:54;6.73;;;3.10;;
38549;SDS011;24322;52.004;5.948;2022-08-21T06:09:20;7.43;;;3.87;;
38549;SDS011;24322;52.004;5.948;2022-08-21T06:11:46;7.97;;;4.30;;
38549;SDS011;24322;52.004;5.948;2022-08-21T06:14:13;8.33;;;4.53;;
38549;SDS011;24322;52.004;5.948;2022-08-21T06:16:39;9.00;;;4.33;;
38549;SDS011;24322;52.004;5.948;2022-08-21T06:19:05;9.70;;;5.40;;
38549;SDS011;24322;52.004;5.948;2022-08-21T06:21:31;8.43;;;4.67;;
38549;SDS011;24322;52.004;5.948;2022-08-21T06:23:56;10.57;;;4.90;;
38549;SDS011;24322;52.004;5.948;2022-08-21T06:26:22;17.03;;;8.70;;
38549;SDS011;24322;52.004;5.948;2022-08-21T06:28:49;19.93;;;10.33;;
38549;SDS011;24322;52.004;5.948;2022-08-21T06:31:16;24.98;;;14.10;;
38549;SDS011;24322;52.004;5.948;2022-08-21T06:33:43;17.40;;;10.07;;
38549;SDS011;24322;52.004;5.948;2022-08-21T06:36:09;20.60;;;11.18;;
38549;SDS011;24322;52.004;5.948;2022-08-21T06:38:35;19.08;;;9.75;;
38549;SDS011;24322;52.004;5.948;2022-08-21T06:41:01;14.73;;;9.60;;
38549;SDS011;24322;52.004;5.948;2022-08-21T06:43:27;15.55;;;8.10;;
38549;SDS011;24322;52.004;5.948;2022-08-21T06:45:53;14.07;;;7.03;;
38549;SDS011;24322;52.004;5.948;2022-08-21T06:48:19;16.45;;;8.05;;
38549;SDS011;24322;52.004;5.948;2022-08-21T06:50:44;12.32;;;7.32;;
38549;SDS011;24322;52.004;5.948;2022-08-21T06:53:12;16.50;;;8.77;;
38549;SDS011;24322;52.004;5.948;2022-08-21T06:55:39;21.90;;;10.23;;
38549;SDS011;24322;52.004;5.948;2022-08-21T06:58:07;14.32;;;7.35;;
38549;SDS011;24322;52.004;5.948;2022-08-21T07:00:33;17.02;;;7.18;;
38549;SDS011;24322;52.004;5.948;2022-08-21T07:03:03;11.18;;;6.40;;
38549;SDS011;24322;52.004;5.948;2022-08-21T07:05:29;14.82;;;8.15;;
38549;SDS011;24322;52.004;5.948;2022-08-21T07:07:55;14.30;;;7.45;;
38549;SDS011;24322;52.004;5.948;2022-08-21T07:10:22;15.82;;;7.97;;
38549;SDS011;24322;52.004;5.948;2022-08-21T07:12:49;14.38;;;7.78;;
38549;SDS011;24322;52.004;5.948;2022-08-21T07:15:15;16.08;;;6.85;;
38549;SDS011;24322;52.004;5.948;2022-08-21T07:17:41;19.70;;;7.57;;
38549;SDS011;24322;52.004;5.948;2022-08-21T07:20:07;14.00;;;7.05;;
38549;SDS011;24322;52.004;5.948;2022-08-21T07:22:33;18.33;;;7.70;;
38549;SDS011;24322;52.004;5.948;2022-08-21T07:25:00;18.85;;;7.45;;
38549;SDS011;24322;52.004;5.948;2022-08-21T07:27:26;13.25;;;7.30;;
38549;SDS011;24322;52.004;5.948;2022-08-21T07:29:52;12.93;;;5.90;;
38549;SDS011;24322;52.004;5.948;2022-08-21T07:32:17;15.15;;;6.90;;
38549;SDS011;24322;52.004;5.948;2022-08-21T07:34:43;12.27;;;6.20;;
38549;SDS011;24322;52.004;5.948;2022-08-21T07:37:09;14.50;;;6.85;;
38549;SDS011;24322;52.004;5.948;2022-08-21T07:39:35;11.23;;;5.82;;
38549;SDS011;24322;52.004;5.948;2022-08-21T07:42:01;16.65;;;6.88;;
38549;SDS011;24322;52.004;5.948;2022-08-21T07:44:28;16.85;;;6.15;;
38549;SDS011;24322;52.004;5.948;2022-08-21T07:46:53;18.17;;;8.13;;
38549;SDS011;24322;52.004;5.948;2022-08-21T07:49:19;10.38;;;5.05;;
38549;SDS011;24322;52.004;5.948;2022-08-21T07:51:44;14.32;;;5.80;;
38549;SDS011;24322;52.004;5.948;2022-08-21T07:54:10;11.57;;;6.32;;
38549;SDS011;24322;52.004;5.948;2022-08-21T07:56:36;15.50;;;5.78;;
38549;SDS011;24322;52.004;5.948;2022-08-21T07:59:02;17.80;;;5.72;;
38549;SDS011;24322;52.004;5.948;2022-08-21T08:01:28;12.65;;;5.03;;
38549;SDS011;24322;52.004;5.948;2022-08-21T08:03:54;14.52;;;4.53;;
38549;SDS011;24322;52.004;5.948;2022-08-21T08:06:21;14.02;;;5.20;;
38549;SDS011;24322;52.004;5.948;2022-08-21T08:08:48;13.30;;;5.68;;
38549;SDS011;24322;52.004;5.948;2022-08-21T08:11:13;15.82;;;5.47;;
38549;SDS011;24322;52.004;5.948;2022-08-21T08:13:47;13.68;;;5.88;;
38549;SDS011;24322;52.004;5.948;2022-08-21T08:16:15;11.38;;;4.35;;
38549;SDS011;24322;52.004;5.948;2022-08-21T08:18:41;16.85;;;5.30;;
38549;SDS011;24322;52.004;5.948;2022-08-21T08:21:08;14.75;;;4.43;;
38549;SDS011;24322;52.004;5.948;2022-08-21T08:23:34;11.45;;;4.15;;
38549;SDS011;24322;52.004;5.948;2022-08-21T08:26:00;12.48;;;3.65;;
38549;SDS011;24322;52.004;5.948;2022-08-21T08:28:29;8.70;;;3.88;;
38549;SDS011;24322;52.004;5.948;2022-08-21T08:30:56;9.85;;;3.67;;
38549;SDS011;24322;52.004;5.948;2022-08-21T08:33:23;13.45;;;4.30;;
38549;SDS011;24322;52.004;5.948;2022-08-21T08:35:49;14.73;;;4.55;;
38549;SDS011;24322;52.004;5.948;2022-08-21T08:38:16;11.90;;;4.15;;
38549;SDS011;24322;52.004;5.948;2022-08-21T08:40:50;11.43;;;4.47;;
38549;SDS011;24322;52.004;5.948;2022-08-21T08:43:38;16.20;;;5.40;;
38549;SDS011;24322;52.004;5.948;2022-08-21T08:46:10;12.40;;;3.65;;
38549;SDS011;24322;52.004;5.948;2022-08-21T08:48:43;7.55;;;2.97;;
38549;SDS011;24322;52.004;5.948;2022-08-21T08:51:19;10.38;;;2.90;;
38549;SDS011;24322;52.004;5.948;2022-08-21T08:53:54;8.52;;;2.65;;
38549;SDS011;24322;52.004;5.948;2022-08-21T08:56:27;9.93;;;3.35;;
38549;SDS011;24322;52.004;5.948;2022-08-21T08:58:56;6.53;;;3.13;;
38549;SDS011;24322;52.004;5.948;2022-08-21T09:01:27;15.15;;;3.50;;
38549;SDS011;24322;52.004;5.948;2022-08-21T09:03:53;10.30;;;3.20;;
38549;SDS011;24322;52.004;5.948;2022-08-21T09:06:27;9.75;;;3.28;;
38549;SDS011;24322;52.004;5.948;2022-08-21T09:11:59;9.27;;;2.85;;
38549;SDS011;24322;52.004;5.948;2022-08-21T09:14:47;10.27;;;2.95;;
38549;SDS011;24322;52.004;5.948;2022-08-21T09:19:56;10.38;;;3.53;;
38549;SDS011;24322;52.004;5.948;2022-08-21T09:25:20;7.35;;;1.90;;
38549;SDS011;24322;52.004;5.948;2022-08-21T09:27:55;11.55;;;3.28;;
38549;SDS011;24322;52.004;5.948;2022-08-21T09:30:28;8.25;;;2.38;;
38549;SDS011;24322;52.004;5.948;2022-08-21T09:32:56;10.57;;;2.67;;
38549;SDS011;24322;52.004;5.948;2022-08-21T09:35:22;7.70;;;2.22;;
38549;SDS011;24322;52.004;5.948;2022-08-21T09:37:54;8.20;;;2.17;;
38549;SDS011;24322;52.004;5.948;2022-08-21T09:40:27;11.60;;;3.25;;
38549;SDS011;24322;52.004;5.948;2022-08-21T09:43:06;11.18;;;2.75;;
38549;SDS011;24322;52.004;5.948;2022-08-21T09:45:42;8.50;;;2.20;;
38549;SDS011;24322;52.004;5.948;2022-08-21T09:48:20;11.55;;;2.63;;
38549;SDS011;24322;52.004;5.948;2022-08-21T09:50:47;5.18;;;1.48;;
38549;SDS011;24322;52.004;5.948;2022-08-21T09:53:24;8.50;;;2.30;;
38549;SDS011;24322;52.004;5.948;2022-08-21T09:55:54;6.93;;;1.98;;
38549;SDS011;24322;52.004;5.948;2022-08-21T09:58:44;7.68;;;1.80;;
38549;SDS011;24322;52.004;5.948;2022-08-21T10:01:15;9.27;;;2.25;;
38549;SDS011;24322;52.004;5.948;2022-08-21T10:06:09;9.60;;;1.80;;
38549;SDS011;24322;52.004;5.948;2022-08-21T10:08:45;10.18;;;1.70;;
38549;SDS011;24322;52.004;5.948;2022-08-21T10:11:17;5.25;;;1.90;;
38549;SDS011;24322;52.004;5.948;2022-08-21T10:13:56;8.65;;;1.38;;
38549;SDS011;24322;52.004;5.948;2022-08-21T10:16:47;9.77;;;1.63;;
38549;SDS011;24322;52.004;5.948;2022-08-21T10:20:14;6.18;;;1.60;;
38549;SDS011;24322;52.004;5.948;2022-08-21T10:25:31;9.15;;;1.80;;
38549;SDS011;24322;52.004;5.948;2022-08-21T10:28:24;5.70;;;1.48;;
38549;SDS011;24322;52.004;5.948;2022-08-21T10:30:56;5.30;;;1.38;;
38549;SDS011;24322;52.004;5.948;2022-08-21T10:38:56;5.35;;;1.60;;
38549;SDS011;24322;52.004;5.948;2022-08-21T10:41:27;10.68;;;1.85;;
38549;SDS011;24322;52.004;5.948;2022-08-21T10:44:23;8.45;;;1.30;;
38549;SDS011;24322;52.004;5.948;2022-08-21T10:52:22;8.38;;;1.70;;
38549;SDS011;24322;52.004;5.948;2022-08-21T10:55:06;4.28;;;1.33;;
38549;SDS011;24322;52.004;5.948;2022-08-21T11:00:24;7.47;;;1.75;;
38549;SDS011;24322;52.004;5.948;2022-08-21T11:05:45;5.05;;;1.17;;
38549;SDS011;24322;52.004;5.948;2022-08-21T11:10:52;7.13;;;1.33;;
38549;SDS011;24322;52.004;5.948;2022-08-21T11:21:43;5.45;;;1.90;;
38549;SDS011;24322;52.004;5.948;2022-08-21T11:26:47;4.07;;;1.27;;
38549;SDS011;24322;52.004;5.948;2022-08-21T11:29:27;6.38;;;1.77;;
38549;SDS011;24322;52.004;5.948;2022-08-21T11:37:21;5.55;;;1.50;;
38549;SDS011;24322;52.004;5.948;2022-08-21T11:40:44;4.60;;;1.00;;
38549;SDS011;24322;52.004;5.948;2022-08-21T11:48:54;3.67;;;0.95;;
38549;SDS011;24322;52.004;5.948;2022-08-21T11:51:33;3.33;;;0.60;;
38549;SDS011;24322;52.004;5.948;2022-08-21T11:57:04;6.93;;;1.20;;
38549;SDS011;24322;52.004;5.948;2022-08-21T12:02:10;5.05;;;1.15;;
38549;SDS011;24322;52.004;5.948;2022-08-21T12:04:47;2.80;;;1.30;;
38549;SDS011;24322;52.004;5.948;2022-08-21T12:07:29;5.90;;;1.15;;
38549;SDS011;24322;52.004;5.948;2022-08-21T12:09:55;6.80;;;1.45;;
38549;SDS011;24322;52.004;5.948;2022-08-21T12:12:24;7.13;;;1.33;;
38549;SDS011;24322;52.004;5.948;2022-08-21T12:14:51;7.32;;;1.40;;
38549;SDS011;24322;52.004;5.948;2022-08-21T12:17:34;5.95;;;1.70;;
38549;SDS011;24322;52.004;5.948;2022-08-21T12:20:22;6.97;;;1.63;;
38549;SDS011;24322;52.004;5.948;2022-08-21T12:25:41;7.57;;;1.67;;
38549;SDS011;24322;52.004;5.948;2022-08-21T12:28:14;7.35;;;1.10;;
38549;SDS011;24322;52.004;5.948;2022-08-21T12:30:42;3.13;;;1.38;;
38549;SDS011;24322;52.004;5.948;2022-08-21T12:36:01;6.40;;;1.60;;
38549;SDS011;24322;52.004;5.948;2022-08-21T12:38:28;4.25;;;1.00;;
38549;SDS011;24322;52.004;5.948;2022-08-21T12:41:01;6.80;;;2.08;;
38549;SDS011;24322;52.004;5.948;2022-08-21T12:45:59;7.80;;;1.73;;
38549;SDS011;24322;52.004;5.948;2022-08-21T12:51:29;4.50;;;1.33;;
38549;SDS011;24322;52.004;5.948;2022-08-21T12:54:22;5.07;;;1.17;;
38549;SDS011;24322;52.004;5.948;2022-08-21T12:57:03;7.30;;;0.90;;
38549;SDS011;24322;52.004;5.948;2022-08-21T12:59:31;8.27;;;1.42;;
38549;SDS011;24322;52.004;5.948;2022-08-21T13:01:58;4.63;;;1.00;;
38549;SDS011;24322;52.004;5.948;2022-08-21T13:04:36;3.58;;;1.00;;
38549;SDS011;24322;52.004;5.948;2022-08-21T13:07:12;5.95;;;1.45;;
38549;SDS011;24322;52.004;5.948;2022-08-21T13:09:46;5.80;;;0.95;;
38549;SDS011;24322;52.004;5.948;2022-08-21T13:12:14;3.45;;;1.10;;
38549;SDS011;24322;52.004;5.948;2022-08-21T13:14:43;4.45;;;0.90;;
38549;SDS011;24322;52.004;5.948;2022-08-21T13:17:12;5.15;;;1.27;;
38549;SDS011;24322;52.004;5.948;2022-08-21T13:19:41;3.30;;;1.02;;
38549;SDS011;24322;52.004;5.948;2022-08-21T13:22:13;4.80;;;1.20;;
38549;SDS011;24322;52.004;5.948;2022-08-21T13:24:40;3.85;;;0.98;;
38549;SDS011;24322;52.004;5.948;2022-08-21T13:27:16;3.92;;;0.95;;
38549;SDS011;24322;52.004;5.948;2022-08-21T13:29:45;6.72;;;1.23;;
38549;SDS011;24322;52.004;5.948;2022-08-21T13:32:18;4.68;;;1.30;;
38549;SDS011;24322;52.004;5.948;2022-08-21T13:34:50;6.70;;;1.77;;
38549;SDS011;24322;52.004;5.948;2022-08-21T13:37:17;6.18;;;0.90;;
38549;SDS011;24322;52.004;5.948;2022-08-21T13:39:47;3.03;;;0.80;;
38549;SDS011;24322;52.004;5.948;2022-08-21T13:42:17;6.35;;;1.63;;
38549;SDS011;24322;52.004;5.948;2022-08-21T13:44:45;4.30;;;1.25;;
38549;SDS011;24322;52.004;5.948;2022-08-21T13:47:14;5.10;;;1.30;;
38549;SDS011;24322;52.004;5.948;2022-08-21T13:49:42;2.70;;;1.05;;
38549;SDS011;24322;52.004;5.948;2022-08-21T13:52:17;6.07;;;0.93;;
38549;SDS011;24322;52.004;5.948;2022-08-21T13:54:56;4.55;;;1.05;;
38549;SDS011;24322;52.004;5.948;2022-08-21T13:57:32;2.45;;;0.93;;
38549;SDS011;24322;52.004;5.948;2022-08-21T14:00:16;4.18;;;1.27;;
38549;SDS011;24322;52.004;5.948;2022-08-21T14:02:51;1.88;;;0.70;;
38549;SDS011;24322;52.004;5.948;2022-08-21T14:05:22;6.18;;;1.23;;
38549;SDS011;24322;52.004;5.948;2022-08-21T14:07:56;4.93;;;0.93;;
38549;SDS011;24322;52.004;5.948;2022-08-21T14:10:43;3.65;;;0.90;;
38549;SDS011;24322;52.004;5.948;2022-08-21T14:16:16;4.35;;;1.02;;
38549;SDS011;24322;52.004;5.948;2022-08-21T14:18:51;3.92;;;1.05;;
38549;SDS011;24322;52.004;5.948;2022-08-21T14:21:28;5.53;;;1.20;;
38549;SDS011;24322;52.004;5.948;2022-08-21T14:24:03;3.60;;;0.82;;
38549;SDS011;24322;52.004;5.948;2022-08-21T14:26:29;1.80;;;0.95;;
38549;SDS011;24322;52.004;5.948;2022-08-21T14:28:57;2.45;;;1.38;;
38549;SDS011;24322;52.004;5.948;2022-08-21T14:31:27;4.10;;;1.17;;
38549;SDS011;24322;52.004;5.948;2022-08-21T14:33:55;4.03;;;1.35;;
38549;SDS011;24322;52.004;5.948;2022-08-21T14:36:21;3.63;;;1.13;;
38549;SDS011;24322;52.004;5.948;2022-08-21T14:38:46;4.57;;;1.20;;
38549;SDS011;24322;52.004;5.948;2022-08-21T14:41:15;3.95;;;1.05;;
38549;SDS011;24322;52.004;5.948;2022-08-21T14:43:43;6.78;;;1.38;;
38549;SDS011;24322;52.004;5.948;2022-08-21T14:46:11;2.38;;;0.90;;
38549;SDS011;24322;52.004;5.948;2022-08-21T14:48:44;3.47;;;0.90;;
38549;SDS011;24322;52.004;5.948;2022-08-21T14:51:11;2.30;;;0.60;;
38549;SDS011;24322;52.004;5.948;2022-08-21T14:53:36;4.45;;;1.05;;
38549;SDS011;24322;52.004;5.948;2022-08-21T14:56:02;4.38;;;1.08;;
38549;SDS011;24322;52.004;5.948;2022-08-21T14:58:35;3.10;;;0.82;;
38549;SDS011;24322;52.004;5.948;2022-08-21T15:01:04;6.53;;;0.90;;
38549;SDS011;24322;52.004;5.948;2022-08-21T15:03:33;3.95;;;1.00;;
38549;SDS011;24322;52.004;5.948;2022-08-21T15:06:03;4.63;;;1.15;;
38549;SDS011;24322;52.004;5.948;2022-08-21T15:08:30;4.63;;;1.15;;
38549;SDS011;24322;52.004;5.948;2022-08-21T15:10:55;5.15;;;1.30;;
38549;SDS011;24322;52.004;5.948;2022-08-21T15:13:21;5.60;;;1.10;;
38549;SDS011;24322;52.004;5.948;2022-08-21T15:15:48;5.47;;;1.30;;
38549;SDS011;24322;52.004;5.948;2022-08-21T15:18:17;3.80;;;1.35;;
38549;SDS011;24322;52.004;5.948;2022-08-21T15:20:44;3.28;;;0.98;;
38549;SDS011;24322;52.004;5.948;2022-08-21T15:23:09;2.05;;;1.02;;
38549;SDS011;24322;52.004;5.948;2022-08-21T15:25:35;2.92;;;1.10;;
38549;SDS011;24322;52.004;5.948;2022-08-21T15:28:01;6.80;;;1.40;;
38549;SDS011;24322;52.004;5.948;2022-08-21T15:30:28;5.68;;;1.65;;
38549;SDS011;24322;52.004;5.948;2022-08-21T15:32:55;4.15;;;1.10;;
38549;SDS011;24322;52.004;5.948;2022-08-21T15:35:21;5.50;;;1.83;;
38549;SDS011;24322;52.004;5.948;2022-08-21T15:37:47;4.97;;;1.23;;
38549;SDS011;24322;52.004;5.948;2022-08-21T15:40:12;7.15;;;1.20;;
38549;SDS011;24322;52.004;5.948;2022-08-21T15:42:40;6.13;;;1.30;;
38549;SDS011;24322;52.004;5.948;2022-08-21T15:45:06;3.85;;;1.20;;
38549;SDS011;24322;52.004;5.948;2022-08-21T15:47:34;4.80;;;1.02;;
38549;SDS011;24322;52.004;5.948;2022-08-21T15:50:03;4.55;;;1.20;;
38549;SDS011;24322;52.004;5.948;2022-08-21T15:52:30;6.75;;;1.20;;
38549;SDS011;24322;52.004;5.948;2022-08-21T15:54:55;3.65;;;0.98;;
38549;SDS011;24322;52.004;5.948;2022-08-21T15:57:22;3.13;;;1.10;;
38549;SDS011;24322;52.004;5.948;2022-08-21T16:00:11;4.82;;;1.48;;
38549;SDS011;24322;52.004;5.948;2022-08-21T16:02:43;4.03;;;1.17;;
38549;SDS011;24322;52.004;5.948;2022-08-21T16:05:10;3.97;;;1.05;;
38549;SDS011;24322;52.004;5.948;2022-08-21T16:07:37;4.25;;;0.98;;
38549;SDS011;24322;52.004;5.948;2022-08-21T16:10:05;2.53;;;1.05;;
38549;SDS011;24322;52.004;5.948;2022-08-21T16:12:32;7.65;;;1.55;;
38549;SDS011;24322;52.004;5.948;2022-08-21T16:15:03;9.38;;;1.88;;
38549;SDS011;24322;52.004;5.948;2022-08-21T16:17:33;4.15;;;1.05;;